Arlee, Montana
Current Conditions -  °F | °C
As of 8:53 AM on Friday 28 Nov 2014 (Local Time) from KMSO Reporting Station
Broken Clouds Broken Clouds  
Wind Chill: 36°   Ceiling: 11000
Heat Index: 43°   Visibility: 10mi
Dew Point: 39°   Wind: 14mph
Humidity: 86%   Direction: 160°SSE
Pressure: 29.65"   Gusts: NA
Location:  47.16°N, 114.09°W
Report Text: KMSO 281553Z 16012KT 10SM FEW045 SCT085 BKN110 06/04 A2965 RMK AO2 SLP046 T00610039
Loading
Personal Weather Stations






























Interactive Weather Map New forecast layout! Learn more

10-Day Weather Forecast

Advertisements
Track Severe Weather on mobile